Time;durP1;ratioP1;P1;durP2;ratioP2;P2;SDS_P1;SDS_P2;PMS_P1;PMS_P2;Temp;Humidity;BMP_temperature;BMP_pressure;BME280_temperature;BME280_humidity;BME280_pressure;Samples;Min_cycle;Max_cycle;Signal;HPM_P1;HPM_P2
2022/05/25 00:01:59;;;;;;;4.22;3.15;;;10.50;99.90;;;;;;6242303;22;20016;-82
2022/05/25 00:04:25;;;;;;;6.93;3.03;;;10.40;99.90;;;;;;6268018;22;20016;-82
2022/05/25 00:06:50;;;;;;;7.32;4.18;;;10.40;99.90;;;;;;6242191;23;20098;-82
2022/05/25 00:09:17;;;;;;;5.00;3.40;;;10.40;99.90;;;;;;6242168;23;20400;-82
2022/05/25 00:11:43;;;;;;;5.82;3.08;;;10.30;99.90;;;;;;6243630;22;20040;-82
2022/05/25 00:14:09;;;;;;;4.90;3.00;;;10.40;99.90;;;;;;6217187;23;20441;-82
2022/05/25 00:16:35;;;;;;;4.00;3.08;;;10.30;99.90;;;;;;6242013;23;20294;-83
2022/05/25 00:21:44;;;;;;;3.75;2.92;;;10.30;99.90;;;;;;6243657;22;20020;-82
2022/05/25 00:24:10;;;;;;;6.13;3.00;;;10.20;99.90;;;;;;6216852;23;20131;-82
2022/05/25 00:26:36;;;;;;;7.70;3.40;;;10.10;99.90;;;;;;6242067;23;20027;-83
2022/05/25 00:29:02;;;;;;;5.15;3.55;;;10.10;99.90;;;;;;6244132;23;20079;-82
2022/05/25 00:31:28;;;;;;;6.20;4.47;;;10.10;99.90;;;;;;6243720;22;20012;-82
2022/05/25 00:33:54;;;;;;;4.30;3.25;;;10.10;99.90;;;;;;6242472;23;20593;-82
2022/05/25 00:36:19;;;;;;;5.82;3.58;;;10.00;99.90;;;;;;6244160;23;20461;-82
2022/05/25 00:38:45;;;;;;;5.97;3.60;;;10.00;99.90;;;;;;6242581;23;20008;-83
2022/05/25 00:41:11;;;;;;;5.28;3.55;;;10.00;99.90;;;;;;6242575;22;20012;-83
2022/05/25 00:43:37;;;;;;;9.35;5.15;;;10.00;99.90;;;;;;6242873;23;20515;-83
2022/05/25 00:46:07;;;;;;;6.75;5.57;;;10.00;99.90;;;;;;6217767;23;20088;-83
2022/05/25 00:49:01;;;;;;;6.93;5.80;;;10.00;99.90;;;;;;6243908;23;20070;-83
2022/05/25 00:51:48;;;;;;;8.57;6.30;;;10.00;99.90;;;;;;6212569;22;20043;-83
2022/05/25 00:54:38;;;;;;;6.90;5.60;;;10.00;99.90;;;;;;6243763;23;20066;-83
2022/05/25 00:57:14;;;;;;;7.80;4.80;;;10.00;99.90;;;;;;6242569;22;20008;-83
2022/05/25 01:00:06;;;;;;;8.15;4.82;;;10.00;99.90;;;;;;6242509;23;20016;-84
2022/05/25 01:02:35;;;;;;;7.32;3.85;;;10.00;99.90;;;;;;6243267;22;20651;-84
2022/05/25 01:05:00;;;;;;;5.82;4.40;;;10.00;99.90;;;;;;6244754;23;20023;-83
2022/05/25 01:07:50;;;;;;;6.45;4.75;;;10.00;99.90;;;;;;6246528;23;20012;-83
2022/05/25 01:10:21;;;;;;;6.80;4.65;;;10.00;99.90;;;;;;6244172;23;20469;-83
2022/05/25 01:13:06;;;;;;;5.95;4.05;;;9.90;99.90;;;;;;6246361;22;20023;-83
2022/05/25 01:15:50;;;;;;;5.78;4.57;;;9.90;99.90;;;;;;6246117;22;20468;-83
2022/05/25 01:18:41;;;;;;;6.85;4.55;;;9.90;99.90;;;;;;6245760;22;20326;-83
2022/05/25 01:21:43;;;;;;;5.55;3.97;;;9.90;99.90;;;;;;6218597;22;20012;-83
2022/05/25 01:24:32;;;;;;;7.35;4.95;;;9.90;99.90;;;;;;6187160;22;20020;-84
2022/05/25 01:27:33;;;;;;;6.82;4.75;;;9.80;99.90;;;;;;6244564;23;20047;-84
2022/05/25 01:30:04;;;;;;;6.20;4.82;;;9.80;99.90;;;;;;6243939;23;20008;-83
2022/05/25 01:32:51;;;;;;;10.15;5.00;;;9.80;99.90;;;;;;6219580;23;20039;-83
2022/05/25 01:35:35;;;;;;;8.93;5.40;;;9.70;99.90;;;;;;6245038;23;20008;-83
2022/05/25 01:38:41;;;;;;;9.63;5.82;;;9.80;99.90;;;;;;6244473;23;20008;-83
2022/05/25 01:41:20;;;;;;;9.05;5.95;;;9.80;99.90;;;;;;6272638;22;20030;-84
2022/05/25 01:43:58;;;;;;;8.10;5.38;;;9.70;99.90;;;;;;6247606;22;20080;-84
2022/05/25 01:46:28;;;;;;;7.30;5.80;;;9.70;99.90;;;;;;6244109;23;20020;-83
2022/05/25 01:48:56;;;;;;;7.38;5.30;;;9.70;99.90;;;;;;6245236;22;20023;-83
2022/05/25 01:51:27;;;;;;;8.32;5.82;;;9.70;99.90;;;;;;6245095;22;20008;-84
2022/05/25 01:53:58;;;;;;;9.98;5.93;;;9.70;99.90;;;;;;6244080;23;20350;-84
2022/05/25 01:56:26;;;;;;;7.43;4.95;;;9.70;99.90;;;;;;6245580;22;20012;-84
2022/05/25 01:58:57;;;;;;;9.32;6.22;;;9.70;99.90;;;;;;6243484;23;20009;-84
2022/05/25 02:01:23;;;;;;;7.93;5.60;;;9.70;99.90;;;;;;6241730;22;20022;-83
2022/05/25 02:07:04;;;;;;;11.07;5.80;;;9.70;99.90;;;;;;6215045;23;20083;-83
2022/05/25 02:10:05;;;;;;;11.02;6.15;;;9.70;99.90;;;;;;6214573;23;20020;-83
2022/05/25 02:12:40;;;;;;;8.15;5.57;;;9.60;99.90;;;;;;6157884;23;20024;-83
2022/05/25 02:15:14;;;;;;;11.90;6.47;;;9.70;99.90;;;;;;6162962;23;20485;-84
2022/05/25 02:17:54;;;;;;;10.68;6.95;;;9.60;99.90;;;;;;6214899;23;20028;-83
2022/05/25 02:20:48;;;;;;;9.77;6.63;;;9.60;99.90;;;;;;6162976;23;20341;-83
2022/05/25 02:23:33;;;;;;;13.23;6.45;;;9.60;99.90;;;;;;6187821;23;20070;-84
2022/05/25 02:26:09;;;;;;;10.52;6.43;;;9.60;99.90;;;;;;6214773;23;20019;-84
2022/05/25 02:28:46;;;;;;;8.65;6.35;;;9.60;99.90;;;;;;6188205;23;20012;-83
2022/05/25 02:31:17;;;;;;;10.07;6.88;;;9.60;99.90;;;;;;6187640;23;20521;-83
2022/05/25 02:33:48;;;;;;;11.50;6.75;;;9.60;99.90;;;;;;6188252;23;20023;-83
2022/05/25 02:36:15;;;;;;;10.32;6.63;;;9.60;99.90;;;;;;6188127;23;20013;-83
2022/05/25 02:38:42;;;;;;;13.30;6.68;;;9.60;99.90;;;;;;6187849;23;20342;-84
2022/05/25 02:41:14;;;;;;;11.02;7.22;;;9.60;99.90;;;;;;6187299;23;20023;-83
2022/05/25 02:43:40;;;;;;;10.82;6.78;;;9.60;99.90;;;;;;6187293;23;20013;-83
2022/05/25 02:46:07;;;;;;;10.40;6.72;;;9.60;99.90;;;;;;6162730;23;20020;-83
2022/05/25 02:48:34;;;;;;;13.73;8.05;;;9.60;99.90;;;;;;6214456;23;20044;-83
2022/05/25 02:50:59;;;;;;;10.63;6.70;;;9.60;99.90;;;;;;6187162;23;20013;-83
2022/05/25 02:53:25;;;;;;;12.10;6.88;;;9.60;99.90;;;;;;6187689;23;20012;-83
2022/05/25 02:55:50;;;;;;;10.85;7.65;;;9.60;99.90;;;;;;6187730;23;20047;-83
2022/05/25 02:58:17;;;;;;;13.52;7.43;;;9.60;99.90;;;;;;6187214;23;20442;-83
2022/05/25 03:00:43;;;;;;;13.43;7.68;;;9.50;99.90;;;;;;6162017;23;20399;-83
2022/05/25 03:03:11;;;;;;;13.57;8.25;;;9.50;99.90;;;;;;6230059;23;20016;-81
2022/05/25 03:05:37;;;;;;;16.27;7.65;;;9.50;99.90;;;;;;6243110;23;20016;-82
2022/05/25 03:08:05;;;;;;;12.23;8.27;;;9.60;99.90;;;;;;6242703;23;20027;-83
2022/05/25 03:10:30;;;;;;;15.30;7.90;;;9.60;99.90;;;;;;6242046;23;20099;-83
2022/05/25 03:12:56;;;;;;;14.75;7.85;;;9.60;99.90;;;;;;6242310;22;20039;-82
2022/05/25 03:15:21;;;;;;;13.57;8.55;;;9.60;99.90;;;;;;6243012;23;20016;-83
2022/05/25 03:17:47;;;;;;;13.40;7.53;;;9.60;99.90;;;;;;6218022;23;20078;-83
2022/05/25 03:20:13;;;;;;;11.13;8.25;;;9.60;99.90;;;;;;6242832;23;20031;-84
2022/05/25 03:22:40;;;;;;;15.20;8.18;;;9.60;99.90;;;;;;6245161;22;20350;-83
2022/05/25 03:25:06;;;;;;;13.43;8.50;;;9.60;99.90;;;;;;6217679;23;20023;-84
2022/05/25 03:27:32;;;;;;;15.40;8.35;;;9.60;99.90;;;;;;6242796;23;20031;-84
2022/05/25 03:29:57;;;;;;;13.23;7.78;;;9.60;99.90;;;;;;6243393;23;20341;-83
2022/05/25 03:32:23;;;;;;;12.60;8.23;;;9.60;99.90;;;;;;6218200;23;20354;-83
2022/05/25 03:34:49;;;;;;;19.10;8.65;;;9.50;99.90;;;;;;6243706;23;20012;-81
2022/05/25 03:37:14;;;;;;;13.70;8.40;;;9.60;99.90;;;;;;6243186;23;20012;-84
2022/05/25 03:39:40;;;;;;;14.82;8.93;;;9.60;99.90;;;;;;6244706;23;20066;-85
2022/05/25 03:42:07;;;;;;;13.75;8.68;;;9.60;99.90;;;;;;6243541;22;20019;-84
2022/05/25 03:44:34;;;;;;;13.25;8.18;;;9.60;99.90;;;;;;6243515;23;20453;-83
2022/05/25 03:47:00;;;;;;;15.48;8.90;;;9.60;99.90;;;;;;6243341;23;20424;-82
2022/05/25 03:49:26;;;;;;;15.88;8.48;;;9.60;99.90;;;;;;6243709;23;20023;-84
2022/05/25 03:51:51;;;;;;;16.25;8.07;;;9.60;99.90;;;;;;6243163;22;20044;-83
2022/05/25 03:54:17;;;;;;;14.23;8.43;;;9.70;99.90;;;;;;6243314;23;20024;-83
2022/05/25 03:56:43;;;;;;;15.93;8.88;;;9.70;99.90;;;;;;6242858;23;20016;-82
2022/05/25 03:59:08;;;;;;;13.75;8.65;;;9.70;99.90;;;;;;6243452;23;20066;-84
2022/05/25 04:01:36;;;;;;;14.18;9.15;;;9.70;99.90;;;;;;6213188;23;20405;-83
2022/05/25 04:04:02;;;;;;;14.45;8.57;;;9.70;99.90;;;;;;6188020;23;20024;-84
2022/05/25 04:06:27;;;;;;;15.32;8.93;;;9.70;99.90;;;;;;6214345;23;20020;-83
2022/05/25 04:08:53;;;;;;;18.48;9.70;;;9.70;99.90;;;;;;6188117;23;20021;-82
2022/05/25 04:11:18;;;;;;;16.13;9.18;;;9.80;99.90;;;;;;6188568;23;20012;-83
2022/05/25 04:13:44;;;;;;;15.45;9.10;;;9.80;99.90;;;;;;6187920;23;20353;-84
2022/05/25 04:16:10;;;;;;;15.82;9.50;;;9.80;99.90;;;;;;6188459;23;20021;-84
2022/05/25 04:18:36;;;;;;;16.25;8.73;;;9.90;99.90;;;;;;6189102;23;20020;-82
2022/05/25 04:21:01;;;;;;;15.75;10.27;;;9.90;99.90;;;;;;6164270;23;20012;-83
2022/05/25 04:23:28;;;;;;;14.80;8.27;;;9.90;99.90;;;;;;6215633;23;20527;-84
2022/05/25 04:25:54;;;;;;;13.55;9.05;;;9.90;99.90;;;;;;6164701;23;20016;-82
2022/05/25 04:28:20;;;;;;;16.50;10.05;;;10.00;99.90;;;;;;6163174;23;20476;-84
2022/05/25 04:30:46;;;;;;;17.77;9.40;;;10.00;99.90;;;;;;6188767;23;20048;-83
2022/05/25 04:33:13;;;;;;;14.98;8.40;;;10.20;99.90;;;;;;6215104;23;20039;-84
2022/05/25 04:35:40;;;;;;;15.10;9.35;;;10.30;99.90;;;;;;6163045;23;20031;-83
2022/05/25 04:38:06;;;;;;;17.17;8.82;;;10.20;99.90;;;;;;6162729;23;20084;-84
2022/05/25 04:40:41;;;;;;;15.25;7.93;;;10.40;99.90;;;;;;6187403;23;20430;-84
2022/05/25 04:43:12;;;;;;;17.13;8.80;;;10.40;99.90;;;;;;6215173;23;20442;-82
2022/05/25 04:45:39;;;;;;;14.43;8.20;;;10.50;99.90;;;;;;6164116;23;20398;-83
2022/05/25 04:48:05;;;;;;;18.40;8.80;;;10.50;99.90;;;;;;6188463;23;20041;-82
2022/05/25 04:50:34;;;;;;;11.52;7.60;;;10.50;99.90;;;;;;6187905;23;20035;-82
2022/05/25 04:53:00;;;;;;;13.43;7.72;;;10.70;99.90;;;;;;6214696;23;20063;-82
2022/05/25 04:58:28;;;;;;;15.20;8.70;;;11.00;99.90;;;;;;6188264;23;20238;-82
2022/05/25 05:00:54;;;;;;;13.60;7.88;;;11.20;99.90;;;;;;6215284;23;20135;-82
2022/05/25 05:03:21;;;;;;;14.68;7.55;;;11.50;99.90;;;;;;6214802;23;20012;-83
2022/05/25 05:05:48;;;;;;;11.38;7.45;;;12.10;99.90;;;;;;6188423;23;20072;-83
2022/05/25 05:08:13;;;;;;;11.93;7.43;;;12.70;99.90;;;;;;6164371;23;20479;-80
2022/05/25 05:10:39;;;;;;;12.45;8.00;;;13.30;99.90;;;;;;6215600;23;20009;-83
2022/05/25 05:13:07;;;;;;;15.13;7.65;;;13.80;99.90;;;;;;6189164;23;20024;-83
2022/05/25 05:15:34;;;;;;;13.32;7.30;;;14.10;99.90;;;;;;6164999;23;20013;-83
2022/05/25 05:18:00;;;;;;;13.05;7.78;;;14.50;99.90;;;;;;6200045;23;20020;-84
2022/05/25 05:20:26;;;;;;;12.05;8.10;;;14.80;99.90;;;;;;6190203;23;20032;-84
2022/05/25 05:22:51;;;;;;;14.85;8.52;;;15.00;99.90;;;;;;6213121;23;20005;-80
2022/05/25 05:25:17;;;;;;;13.07;7.78;;;15.10;99.90;;;;;;6190660;23;20084;-83
2022/05/25 05:27:45;;;;;;;12.75;8.40;;;15.30;99.90;;;;;;6163674;23;20410;-82
2022/05/25 05:30:14;;;;;;;15.95;8.02;;;15.50;99.90;;;;;;6163285;23;20092;-82
2022/05/25 05:32:39;;;;;;;14.30;8.30;;;15.70;99.90;;;;;;6190463;23;20350;-82
2022/05/25 05:35:06;;;;;;;13.02;8.25;;;15.90;99.90;;;;;;6188690;23;20087;-82
2022/05/25 05:37:48;;;;;;;11.55;8.18;;;16.10;99.90;;;;;;6216489;23;20350;-83
2022/05/25 05:40:14;;;;;;;;;;;16.30;99.90;;;;;;6166866;23;20008;-84
2022/05/25 05:42:41;;;;;;;14.27;9.05;;;16.30;99.90;;;;;;6188094;23;19919;-83
2022/05/25 05:45:16;;;;;;;12.13;8.85;;;16.50;99.90;;;;;;6189043;23;20086;-83
2022/05/25 05:48:01;;;;;;;13.07;8.25;;;16.70;99.90;;;;;;6216079;23;20016;-82
2022/05/25 05:50:28;;;;;;;13.20;8.55;;;16.90;99.90;;;;;;6215191;23;20016;-82
2022/05/25 05:52:54;;;;;;;13.70;8.70;;;17.00;99.90;;;;;;6188792;23;20051;-82
2022/05/25 05:55:21;;;;;;;11.45;8.65;;;17.10;99.90;;;;;;6188246;23;20017;-82
2022/05/25 05:57:46;;;;;;;13.30;8.93;;;17.30;99.90;;;;;;6215821;23;20080;-82
2022/05/25 06:00:15;;;;;;;15.65;9.00;;;17.40;99.90;;;;;;6165286;23;20048;-82
2022/05/25 06:02:41;;;;;;;15.70;9.60;;;17.50;99.90;;;;;;6220402;23;20020;-81
2022/05/25 06:05:07;;;;;;;13.90;8.77;;;17.70;99.90;;;;;;6243495;23;20020;-81
2022/05/25 06:07:33;;;;;;;13.30;9.15;;;18.00;99.90;;;;;;6243222;23;20091;-81
2022/05/25 06:09:58;;;;;;;12.52;9.30;;;18.10;99.90;;;;;;6244154;23;20047;-82
2022/05/25 06:12:24;;;;;;;13.95;8.82;;;18.10;99.90;;;;;;6244898;22;20016;-82
2022/05/25 06:14:50;;;;;;;17.15;9.18;;;18.30;99.90;;;;;;6243026;23;20016;-82
2022/05/25 06:19:59;;;;;;;12.25;8.30;;;18.40;99.90;;;;;;6244638;23;20016;-82
2022/05/25 06:22:26;;;;;;;11.27;8.07;;;18.40;99.90;;;;;;6244929;22;20004;-81
2022/05/25 06:24:52;;;;;;;12.73;8.95;;;18.60;99.90;;;;;;6242993;23;20015;-82
2022/05/25 06:27:20;;;;;;;15.90;8.90;;;18.70;99.90;;;;;;6244611;22;20396;-81
2022/05/25 06:29:48;;;;;;;12.38;8.40;;;18.70;99.90;;;;;;6242795;23;20008;-82
2022/05/25 06:32:17;;;;;;;11.68;7.80;;;18.80;99.90;;;;;;6217743;23;20091;-82
2022/05/25 06:34:50;;;;;;;12.65;8.82;;;19.00;99.90;;;;;;6217754;23;20008;-81
2022/05/25 06:37:21;;;;;;;18.40;8.30;;;19.00;99.90;;;;;;6244729;22;20158;-81
2022/05/25 06:39:47;;;;;;;13.13;7.72;;;19.10;99.90;;;;;;6217316;23;20020;-81
2022/05/25 06:42:12;;;;;;;13.35;8.15;;;19.20;99.90;;;;;;6244466;22;20014;-81
2022/05/25 06:44:38;;;;;;;12.25;7.22;;;19.40;99.90;;;;;;6243115;23;20020;-81
2022/05/25 06:47:05;;;;;;;12.02;8.13;;;19.50;99.90;;;;;;6243051;23;20016;-81
2022/05/25 06:49:31;;;;;;;12.38;6.97;;;19.40;99.90;;;;;;6242152;23;20043;-79
2022/05/25 06:51:57;;;;;;;10.07;7.68;;;19.60;99.90;;;;;;6244675;22;20460;-82
2022/05/25 06:54:23;;;;;;;12.50;6.72;;;19.90;99.90;;;;;;6242438;23;20043;-82
2022/05/25 06:56:49;;;;;;;10.75;6.85;;;20.00;99.90;;;;;;6244450;23;20036;-82
2022/05/25 06:59:15;;;;;;;11.88;6.38;;;20.20;99.90;;;;;;6244365;22;20019;-82
2022/05/25 07:01:42;;;;;;;10.15;6.40;;;20.20;99.90;;;;;;6238409;22;20016;-82
2022/05/25 07:04:08;;;;;;;9.05;6.22;;;20.20;99.90;;;;;;6162376;23;20453;-82
2022/05/25 07:06:36;;;;;;;11.85;6.40;;;20.20;99.90;;;;;;6162446;23;20017;-81
2022/05/25 07:09:03;;;;;;;9.65;6.22;;;20.20;99.90;;;;;;6214022;23;20013;-82
2022/05/25 07:11:29;;;;;;;10.32;5.57;;;20.20;99.90;;;;;;6186602;23;20028;-82
2022/05/25 07:13:54;;;;;;;8.63;6.18;;;20.30;99.90;;;;;;6162184;23;20017;-82
2022/05/25 07:16:21;;;;;;;10.25;6.40;;;20.40;99.90;;;;;;6162749;23;20008;-82
2022/05/25 07:18:47;;;;;;;14.43;5.93;;;20.40;99.90;;;;;;6187390;23;20453;-82
2022/05/25 07:21:17;;;;;;;8.43;5.57;;;20.50;99.90;;;;;;6213528;23;20012;-82
2022/05/25 07:23:45;;;;;;;8.32;5.30;;;20.60;99.90;;;;;;6213353;23;20027;-81
2022/05/25 07:26:11;;;;;;;9.90;5.47;;;20.60;99.90;;;;;;6187112;23;20013;-80
2022/05/25 07:28:38;;;;;;;8.15;5.40;;;20.60;99.90;;;;;;6161982;23;20008;-81
2022/05/25 07:31:10;;;;;;;7.90;5.63;;;20.60;99.90;;;;;;6161497;23;20009;-81
2022/05/25 07:33:39;;;;;;;8.35;5.25;;;20.90;99.90;;;;;;6187010;23;20059;-82
2022/05/25 07:36:06;;;;;;;8.65;4.97;;;21.00;99.90;;;;;;6187093;23;20055;-81
2022/05/25 07:38:33;;;;;;;8.95;5.32;;;21.10;99.90;;;;;;6213621;23;20062;-82
2022/05/25 07:41:00;;;;;;;8.45;5.35;;;21.20;99.90;;;;;;6213491;23;20013;-80
2022/05/25 07:43:30;;;;;;;10.10;5.38;;;21.20;99.90;;;;;;6213371;23;20013;-80
2022/05/25 07:45:56;;;;;;;11.20;5.18;;;21.30;99.90;;;;;;6162281;23;20025;-81
2022/05/25 07:48:21;;;;;;;9.10;5.90;;;21.20;99.90;;;;;;6186885;23;20090;-81
2022/05/25 07:50:47;;;;;;;8.60;4.85;;;21.10;99.90;;;;;;6186488;23;20163;-81
2022/05/25 07:56:01;;;;;;;6.53;4.47;;;20.60;99.90;;;;;;6214651;23;20012;-83
2022/05/25 07:58:27;;;;;;;11.38;4.90;;;20.40;99.90;;;;;;6164128;23;20118;-82
2022/05/25 08:00:54;;;;;;;8.80;5.22;;;20.10;99.90;;;;;;6188990;23;20410;-83
2022/05/25 08:06:05;;;;;;;6.53;4.32;;;19.90;99.90;;;;;;6244573;23;20022;-82
2022/05/25 08:08:31;;;;;;;5.97;4.65;;;20.00;99.90;;;;;;6245349;23;20012;-81
2022/05/25 08:11:02;;;;;;;7.82;4.75;;;20.20;99.90;;;;;;6243679;23;20008;-82
2022/05/25 08:13:30;;;;;;;5.40;3.33;;;20.50;99.90;;;;;;6244240;22;20012;-83
2022/05/25 08:15:56;;;;;;;8.15;4.28;;;20.70;99.90;;;;;;6245320;23;20093;-81
2022/05/25 08:18:22;;;;;;;7.57;4.07;;;20.80;99.90;;;;;;6219213;23;20008;-84
2022/05/25 08:20:48;;;;;;;6.38;3.60;;;21.00;99.90;;;;;;6217732;23;20099;-79
2022/05/25 08:23:16;;;;;;;5.50;3.83;;;21.20;99.90;;;;;;6244269;22;20012;-81
2022/05/25 08:25:42;;;;;;;7.20;3.38;;;21.30;99.90;;;;;;6243329;23;20016;-78
2022/05/25 08:28:08;;;;;;;4.05;3.20;;;21.40;99.90;;;;;;6245856;22;20026;-79
2022/05/25 08:30:37;;;;;;;4.75;2.63;;;21.40;99.90;;;;;;6243493;22;20091;-79
2022/05/25 08:33:03;;;;;;;8.70;3.85;;;21.40;99.90;;;;;;6241912;22;20087;-79
2022/05/25 08:35:30;;;;;;;5.00;2.60;;;21.30;99.90;;;;;;6243974;22;20357;-80
2022/05/25 08:37:57;;;;;;;3.65;2.78;;;21.30;99.90;;;;;;6217428;23;20012;-80
2022/05/25 08:40:24;;;;;;;2.97;2.47;;;21.30;99.90;;;;;;6241967;23;20012;-79
2022/05/25 08:43:12;;;;;;;6.85;3.10;;;21.10;99.90;;;;;;6242421;22;20051;-81
2022/05/25 08:45:50;;;;;;;4.78;2.10;;;21.10;98.80;;;;;;6242723;23;20450;-81
2022/05/25 08:48:17;;;;;;;4.45;2.30;;;20.90;99.90;;;;;;6242825;23;20027;-81
2022/05/25 08:50:49;;;;;;;6.57;2.90;;;20.80;99.90;;;;;;6242935;23;20024;-79
2022/05/25 08:53:18;;;;;;;3.30;3.00;;;20.60;99.90;;;;;;6242625;22;20318;-80
2022/05/25 08:56:29;;;;;;;3.72;2.83;;;20.60;99.90;;;;;;6242356;23;20455;-79
2022/05/25 08:59:10;;;;;;;3.58;3.15;;;20.50;99.90;;;;;;6242712;23;20071;-79
2022/05/25 09:01:56;;;;;;;2.55;2.25;;;20.40;99.90;;;;;;6237738;22;20025;-80
2022/05/25 09:04:48;;;;;;;6.10;3.10;;;20.30;99.90;;;;;;6162131;23;20074;-80
2022/05/25 09:07:35;;;;;;;5.40;2.90;;;20.20;99.90;;;;;;6187062;23;20481;-80
2022/05/25 09:10:01;;;;;;;4.15;2.70;;;20.20;99.90;;;;;;6170275;23;20001;-85
2022/05/25 09:12:27;;;;;;;3.70;2.80;;;20.20;99.90;;;;;;6212915;23;20009;-82
2022/05/25 09:14:58;;;;;;;5.85;3.35;;;20.20;99.90;;;;;;6212498;23;20069;-79
2022/05/25 09:17:29;;;;;;;5.50;3.67;;;20.10;99.90;;;;;;6227358;23;20023;-80
2022/05/25 09:19:55;;;;;;;5.43;2.67;;;20.00;99.90;;;;;;6213378;23;20009;-80
2022/05/25 09:22:25;;;;;;;3.90;3.25;;;19.90;99.90;;;;;;6185911;23;20012;-79
2022/05/25 09:24:55;;;;;;;5.43;2.53;;;20.00;99.90;;;;;;6187849;23;20008;-79
2022/05/25 09:27:27;;;;;;;4.25;2.60;;;20.40;99.90;;;;;;6188544;23;20019;-79
2022/05/25 09:29:54;;;;;;;;;;;20.60;99.90;;;;;;6188523;23;20009;-80
2022/05/25 09:32:42;;;;;;;4.75;2.72;;;20.70;99.90;;;;;;6188002;23;19919;-80
2022/05/25 09:35:17;;;;;;;5.13;2.25;;;21.00;99.90;;;;;;6163812;23;20520;-79
2022/05/25 09:38:01;;;;;;;5.90;2.80;;;21.10;99.90;;;;;;6188546;23;20047;-79
2022/05/25 09:40:38;;;;;;;4.35;2.78;;;21.30;99.90;;;;;;6163146;23;20031;-83
2022/05/25 09:43:08;;;;;;;3.40;3.03;;;21.40;99.40;;;;;;6188287;23;20013;-78
2022/05/25 09:45:45;;;;;;;3.70;2.53;;;21.10;99.90;;;;;;6163363;23;20051;-79
2022/05/25 09:48:15;;;;;;;4.50;2.85;;;20.90;99.90;;;;;;6163401;23;20024;-80
2022/05/25 09:50:49;;;;;;;3.35;2.50;;;20.80;99.90;;;;;;6215025;23;20071;-81
2022/05/25 09:53:17;;;;;;;5.60;2.92;;;20.70;99.90;;;;;;6215087;23;20334;-79
2022/05/25 09:55:52;;;;;;;5.03;2.78;;;20.50;99.90;;;;;;6188681;23;20346;-82
2022/05/25 09:58:37;;;;;;;5.95;2.70;;;20.20;99.90;;;;;;6188023;23;20016;-80
2022/05/25 10:01:24;;;;;;;4.28;2.90;;;20.00;99.90;;;;;;6162876;23;20059;-79
2022/05/25 10:03:50;;;;;;;4.28;2.80;;;20.20;99.90;;;;;;6163329;23;20397;-80
2022/05/25 10:06:21;;;;;;;5.55;3.15;;;20.50;99.90;;;;;;6187995;23;20019;-80
2022/05/25 10:09:16;;;;;;;5.07;2.80;;;20.80;99.90;;;;;;6188362;23;20027;-80
2022/05/25 10:11:46;;;;;;;4.90;3.00;;;20.90;99.90;;;;;;6166791;23;20021;-80
2022/05/25 10:14:31;;;;;;;5.30;3.13;;;20.90;99.90;;;;;;6188023;23;20031;-80
2022/05/25 10:16:58;;;;;;;4.32;2.40;;;20.80;99.90;;;;;;6163219;23;20021;-80
2022/05/25 10:19:24;;;;;;;4.68;2.60;;;20.50;99.90;;;;;;6163144;23;20052;-79
2022/05/25 10:21:52;;;;;;;3.45;2.28;;;20.60;99.90;;;;;;6214982;23;20019;-79
2022/05/25 10:24:43;;;;;;;4.35;2.00;;;20.80;99.90;;;;;;6215397;23;20009;-79
2022/05/25 10:27:34;;;;;;;1.90;1.70;;;20.90;96.10;;;;;;6164045;23;20067;-81
2022/05/25 10:38:51;;;;;;;4.90;2.50;;;20.60;98.60;;;;;;6187790;23;20017;-79
2022/05/25 10:41:39;;;;;;;3.08;2.20;;;20.50;99.80;;;;;;6187064;23;20075;-78
2022/05/25 10:44:17;;;;;;;2.50;2.28;;;20.60;98.90;;;;;;6214174;23;20342;-80
2022/05/25 10:46:52;;;;;;;2.72;1.75;;;20.70;97.00;;;;;;6214184;23;20442;-77
2022/05/25 10:49:38;;;;;;;2.08;1.58;;;20.80;97.70;;;;;;6187775;23;20536;-80
2022/05/25 10:52:27;;;;;;;3.88;1.83;;;20.90;95.30;;;;;;6187699;23;20017;-78
2022/05/25 10:54:53;;;;;;;2.53;1.85;;;20.80;94.50;;;;;;6187802;23;20316;-79
2022/05/25 10:57:44;;;;;;;3.63;2.22;;;20.90;94.90;;;;;;6162730;23;20044;-78
2022/05/25 11:00:16;;;;;;;3.15;2.22;;;20.70;93.90;;;;;;6163393;23;20092;-78
2022/05/25 11:03:12;;;;;;;2.88;2.28;;;20.60;94.40;;;;;;6217934;23;20016;-79
2022/05/25 11:06:12;;;;;;;5.60;2.42;;;20.80;93.80;;;;;;6243944;23;20016;-79
2022/05/25 11:08:57;;;;;;;4.93;2.53;;;21.10;92.80;;;;;;6243456;23;20083;-78
2022/05/25 11:11:27;;;;;;;8.10;2.90;;;21.30;92.90;;;;;;6242739;22;20022;-79
2022/05/25 11:14:00;;;;;;;6.22;2.70;;;21.30;92.90;;;;;;6218641;23;20023;-80
2022/05/25 11:16:59;;;;;;;3.38;2.65;;;21.10;93.40;;;;;;6244078;23;20019;-80
2022/05/25 11:19:45;;;;;;;5.95;2.55;;;21.00;95.50;;;;;;6243887;23;20023;-78
2022/05/25 11:22:30;;;;;;;4.70;2.70;;;20.80;93.30;;;;;;6219640;22;20474;-78
2022/05/25 11:25:25;;;;;;;2.65;2.45;;;20.50;95.80;;;;;;6219272;23;20051;-79
2022/05/25 11:28:00;;;;;;;7.88;2.75;;;20.20;97.50;;;;;;6244884;23;20008;-77
2022/05/25 11:30:52;;;;;;;5.95;2.78;;;20.00;98.10;;;;;;6219401;23;20043;-78
2022/05/25 11:33:48;;;;;;;4.65;3.05;;;19.90;96.50;;;;;;6219957;23;20016;-80
2022/05/25 11:36:54;;;;;;;4.90;3.03;;;19.80;97.70;;;;;;6246061;23;20039;-82
2022/05/25 11:39:57;;;;;;;5.63;2.95;;;19.80;96.10;;;;;;6244225;23;20047;-82
2022/05/25 11:42:43;;;;;;;3.97;3.42;;;19.60;97.70;;;;;;6243872;22;20035;-80
2022/05/25 11:45:24;;;;;;;9.20;3.97;;;19.40;98.30;;;;;;6218812;23;20021;-81
2022/05/25 11:48:24;;;;;;;8.00;3.97;;;19.00;98.90;;;;;;6217487;23;20035;-82
2022/05/25 11:51:02;;;;;;;6.38;4.35;;;18.80;99.90;;;;;;6242105;23;20012;-81
2022/05/25 11:53:56;;;;;;;8.55;5.13;;;18.50;99.90;;;;;;6242121;22;20020;-82
2022/05/25 11:56:48;;;;;;;7.18;4.75;;;18.20;99.90;;;;;;6242069;23;20019;-82
2022/05/25 11:59:26;;;;;;;7.63;4.72;;;17.90;99.90;;;;;;6267004;22;20015;-82
2022/05/25 12:02:24;;;;;;;8.50;3.13;;;17.90;99.90;;;;;;6217499;23;20090;-79
2022/05/25 12:05:29;;;;;;;5.80;2.30;;;17.80;99.90;;;;;;6217777;23;20012;-79
2022/05/25 12:08:19;;;;;;;4.53;2.17;;;18.00;99.90;;;;;;6245027;23;20095;-79
2022/05/25 12:10:58;;;;;;;4.07;2.50;;;18.00;99.90;;;;;;6245161;23;20081;-81
2022/05/25 12:13:33;;;;;;;5.32;3.10;;;18.00;99.90;;;;;;6220006;23;20019;-81
2022/05/25 12:16:15;;;;;;;4.57;2.30;;;18.10;99.90;;;;;;6220613;23;20008;-81
2022/05/25 12:19:05;;;;;;;2.45;2.25;;;18.40;99.90;;;;;;6245473;23;20035;-83
2022/05/25 12:21:41;;;;;;;4.45;2.58;;;18.60;99.90;;;;;;6246964;22;20535;-81
2022/05/25 12:24:21;;;;;;;3.60;2.60;;;18.80;99.90;;;;;;6245546;23;20558;-78
2022/05/25 12:26:47;;;;;;;4.47;2.78;;;19.10;99.90;;;;;;6244975;23;20027;-81
2022/05/25 12:29:33;;;;;;;5.85;2.83;;;19.30;99.90;;;;;;6219388;23;20016;-79
2022/05/25 12:31:59;;;;;;;4.50;2.10;;;19.60;99.90;;;;;;6243470;22;20062;-80
2022/05/25 12:34:34;;;;;;;2.13;1.83;;;19.80;99.90;;;;;;6219641;23;20333;-79
2022/05/25 12:37:02;;;;;;;6.43;1.85;;;20.10;99.90;;;;;;6243858;23;20013;-78
2022/05/25 12:39:42;;;;;;;3.33;1.30;;;20.20;99.90;;;;;;6243193;23;20330;-79
2022/05/25 12:42:28;;;;;;;3.65;1.33;;;20.20;99.90;;;;;;6243093;22;20020;-79
2022/05/25 12:50:53;;;;;;;4.65;1.13;;;19.50;96.40;;;;;;6244046;23;20023;-81
2022/05/25 12:53:39;;;;;;;6.78;1.33;;;19.50;99.20;;;;;;6243412;22;20449;-79
2022/05/25 12:56:37;;;;;;;4.68;1.40;;;19.40;98.60;;;;;;6243215;23;20405;-80
2022/05/25 12:59:25;;;;;;;5.15;1.17;;;19.40;99.90;;;;;;6244456;23;20012;-79
2022/05/25 13:02:09;;;;;;;6.15;0.90;;;19.50;97.90;;;;;;6239251;22;20023;-81
2022/05/25 13:04:48;;;;;;;4.90;1.10;;;19.60;96.00;;;;;;6165284;23;20024;-81
2022/05/25 13:07:46;;;;;;;4.43;1.55;;;19.80;96.80;;;;;;6189956;23;20503;-80
2022/05/25 13:10:41;;;;;;;1.83;0.88;;;20.10;95.40;;;;;;6164707;23;20070;-79
2022/05/25 13:13:37;;;;;;;3.05;1.00;;;20.30;93.50;;;;;;6165104;23;20032;-81
2022/05/25 13:16:03;;;;;;;3.42;0.77;;;20.30;90.50;;;;;;6190375;23;20458;-81
2022/05/25 13:18:50;;;;;;;4.55;0.90;;;20.40;94.10;;;;;;6190232;23;20009;-79
2022/05/25 13:21:36;;;;;;;4.57;0.82;;;20.30;87.10;;;;;;6189279;23;20103;-79
2022/05/25 13:24:49;;;;;;;4.20;0.93;;;20.40;88.10;;;;;;6189974;23;20012;-81
2022/05/25 13:27:19;;;;;;;2.83;1.10;;;20.40;90.10;;;;;;6181440;23;20098;-79
2022/05/25 13:30:07;;;;;;;2.47;0.80;;;20.50;91.70;;;;;;6192128;23;20023;-80
2022/05/25 13:32:45;;;;;;;5.20;0.80;;;20.50;82.80;;;;;;6164526;23;20035;-79
2022/05/25 13:35:42;;;;;;;2.42;0.93;;;20.40;86.30;;;;;;6189690;23;20021;-79
2022/05/25 13:38:15;;;;;;;2.67;0.77;;;20.40;87.60;;;;;;6165026;23;20008;-81
2022/05/25 13:40:45;;;;;;;2.40;0.80;;;20.50;84.20;;;;;;6188739;23;20008;-81
2022/05/25 13:43:15;;;;;;;4.55;0.73;;;20.50;89.10;;;;;;6188571;23;20036;-81
2022/05/25 13:45:46;;;;;;;3.60;1.02;;;20.60;86.40;;;;;;6164249;23;20075;-79
2022/05/25 13:48:17;;;;;;;4.07;0.90;;;20.70;88.90;;;;;;6170022;23;20051;-84
2022/05/25 13:50:46;;;;;;;1.88;0.90;;;20.50;87.50;;;;;;6214185;23;20068;-79